WetterOnline ( https://www.wetteronline.de )

Wetter aktuell Fehrbellin

Aktuelles Wetter: Kyritz (42m)

6-stündlich | Neueste Meldungen
Ortszeit Temperatur Wetter
So, 16.06. 2:00 15.7° C leicht bewölkt
Sa, 15.06. 20:00 23.9° C wolkenlos
Sa, 15.06. 14:00 29.6° C bewölkt
Sa, 15.06. 8:00 22.6° C bedeckt
Sa, 15.06. 2:00 22.2° C bedeckt
Fr, 14.06. 20:00 24.9° C bedeckt
Fr, 14.06. 14:00 28.0° C wolkenlos
Fr, 14.06. 8:00 17.5° C wolkenlos
Ortszeit Temperatur Wetter
So, 16.06. 2:30 15.4° C wolkenlos
So, 16.06. 2:20 15.4° C wolkenlos
So, 16.06. 2:10 15.5° C fast wolkenlos
So, 16.06. 2:00 15.7° C leicht bewölkt
So, 16.06. 1:40 16.0° C leicht bewölkt
So, 16.06. 1:30 16.4° C leicht bewölkt
So, 16.06. 1:00 16.8° C fast wolkenlos
So, 16.06. 0:30 17.4° C leicht bewölkt
So, 16.06. 0:00 18.0° C fast wolkenlos
Sa, 15.06. 23:30 18.3° C wolkenlos
Sa, 15.06. 23:00 19.0° C fast wolkenlos
Ortszeit Relative Feuchte Sichtweite
So, 16.06. 2:00 81% 70 km
Sa, 15.06. 20:00 54% 60 km
Sa, 15.06. 14:00 55% 19 km
Sa, 15.06. 8:00 72% 23 km
Sa, 15.06. 2:00 64% 35 km
Fr, 14.06. 20:00 52% 70 km
Fr, 14.06. 14:00 41% 29 km
Fr, 14.06. 8:00 74% 45 km
Ortszeit Relative Feuchte Sichtweite
So, 16.06. 2:30 82% 70 km
So, 16.06. 2:20 82% -
So, 16.06. 2:10 82% -
So, 16.06. 2:00 81% 70 km
So, 16.06. 1:40 80% -
So, 16.06. 1:30 78% 70 km
So, 16.06. 1:00 77% 70 km
So, 16.06. 0:30 74% 70 km
So, 16.06. 0:00 71% 70 km
Sa, 15.06. 23:30 75% 70 km
Sa, 15.06. 23:00 71% 70 km
Ortszeit Niederschlagsmenge Niederschlagsart
So, 16.06. 2:00 0.0 l/m2 in 6 Std. -
Sa, 15.06. 20:00 0.1 l/m2 in 12 Std. -
Sa, 15.06. 14:00 0.1 l/m2 in 6 Std. Regen
Sa, 15.06. 8:00 0.1 l/m2 in 12 Std. Regen
Sa, 15.06. 2:00 0.1 l/m2 in 6 Std. Regen
Fr, 14.06. 20:00 0.0 l/m2 in 12 Std. -
Fr, 14.06. 14:00 0.0 l/m2 in 6 Std. -
Fr, 14.06. 8:00 9 l/m2 in 12 Std. -
Ortszeit Niederschlagsmenge Niederschlagsart
So, 16.06. 2:30 0.0 l/m2 in 1 Std. -
So, 16.06. 2:20 keine Meldung -
So, 16.06. 2:10 keine Meldung -
So, 16.06. 2:00 0.0 l/m2 in 1 Std. -
So, 16.06. 1:40 keine Meldung -
So, 16.06. 1:30 0.0 l/m2 in 1 Std. -
So, 16.06. 1:00 0.0 l/m2 in 1 Std. -
So, 16.06. 0:30 0.0 l/m2 in 1 Std. -
So, 16.06. 0:00 0.0 l/m2 in 1 Std. -
Sa, 15.06. 23:30 0.0 l/m2 in 1 Std. -
Sa, 15.06. 23:00 0.0 l/m2 in 1 Std. -
Ortszeit Stärke Spitze Richtung
km/h Bft. km/h Grad Sektor
So, 16.06. 2:00 11 2 50 280° W
Sa, 15.06. 20:00 25 4 58 280° W
Sa, 15.06. 14:00 11 2 43 170° S
Sa, 15.06. 8:00 22 4 43 90° O
Sa, 15.06. 2:00 18 3 40 90° O
Fr, 14.06. 20:00 11 2 40 100° O
Fr, 14.06. 14:00 20 4 37 130° SO
Fr, 14.06. 8:00 11 2 19 120° SO
Ortszeit Stärke Spitze Richtung
km/h Bft. km/h Grad Sektor
So, 16.06. 2:30 13 3 22 290° W
So, 16.06. 2:20 13 3 - 290° W
So, 16.06. 2:10 14 3 - 280° W
So, 16.06. 2:00 11 2 29 280° W
So, 16.06. 1:40 13 3 - 290° W
So, 16.06. 1:30 11 2 29 290° W
So, 16.06. 1:00 13 3 37 290° W
So, 16.06. 0:30 17 3 37 290° W
So, 16.06. 0:00 24 4 39 280° W
Sa, 15.06. 23:30 9 2 30 280° W
Sa, 15.06. 23:00 15 3 41 280° W
Ortszeit Untergrenze Bedeckung Gattung
total tief tief mittel hoch
So, 16.06. 2:00 10500 m 3/8 0/8 - - -
Sa, 15.06. 20:00 - 0/8 0/8 - - -
Sa, 15.06. 14:00 1230 m 7/8 7/8 - - -
Sa, 15.06. 8:00 4200 m 8/8 8/8 - - -
Sa, 15.06. 2:00 3900 m 8/8 8/8 - - -
Fr, 14.06. 20:00 4200 m 8/8 8/8 - - -
Fr, 14.06. 14:00 - 0/8 0/8 - - -
Fr, 14.06. 8:00 - 0/8 0/8 - - -
Ortszeit Bedeckungsgrad in Achtel und Wolkenuntergrenze
So, 16.06. 2:30 keine Wolken
So, 16.06. 2:20 keine Wolken
So, 16.06. 2:10 1(10500m)
So, 16.06. 2:00 3(10500m)
So, 16.06. 1:40 1(8100m) 4(10500m)
So, 16.06. 1:30 2(8100m) 3(9000m)
So, 16.06. 1:00 2(10500m) 2(10500m)
So, 16.06. 0:30 4(10500m) 5(10500m)
So, 16.06. 0:00 2(10500m)
Sa, 15.06. 23:30 keine Wolken
Sa, 15.06. 23:00 2(10500m)
Ortszeit Luftdruck NN (hPa) Tendenz (hPa in 3 Std.)
So, 16.06. 2:00 1016 + 1,4
Sa, 15.06. 20:00 1011 + 1,4
Sa, 15.06. 14:00 1008 - 0,2
Sa, 15.06. 8:00 1009 - 2,3
Sa, 15.06. 2:00 1014 - 1,6
Fr, 14.06. 20:00 1016 - 0,9
Fr, 14.06. 14:00 1018 - 1,2
Fr, 14.06. 8:00 1019 + 1,0
Ortszeit Luftdruck NN (hPa) Tendenz (hPa in 3 Std.)
So, 16.06. 2:30 1016 + 1,1
So, 16.06. 2:20 1016 keine Meldung
So, 16.06. 2:10 1016 keine Meldung
So, 16.06. 2:00 1016 + 1,4
So, 16.06. 1:40 1016 keine Meldung
So, 16.06. 1:30 1016 + 1,7
So, 16.06. 1:00 1016 + 2,0
So, 16.06. 0:30 1015 + 3,2
So, 16.06. 0:00 1015 + 2,8
Sa, 15.06. 23:30 1015 + 3,7
Sa, 15.06. 23:00 1015 + 3,3
Ortszeit Schneehöhe (cm)
So, 16.06. 2:00 -
Sa, 15.06. 20:00 -
Sa, 15.06. 14:00 -
Sa, 15.06. 8:00 -
Sa, 15.06. 2:00 -
Fr, 14.06. 20:00 -
Fr, 14.06. 14:00 -
Fr, 14.06. 8:00 -
Ortszeit Schneehöhe (cm)
So, 16.06. 2:30 -
So, 16.06. 2:20 -
So, 16.06. 2:10 -
So, 16.06. 2:00 -
So, 16.06. 1:40 -
So, 16.06. 1:30 -
So, 16.06. 1:00 -
So, 16.06. 0:30 -
So, 16.06. 0:00 -
Sa, 15.06. 23:30 -
Sa, 15.06. 23:00 -
Link zu dieser Seite / Seite empfehlen

Das Wetter in ...